Time,TemperatureF,DewpointF,PressureIn,WindDirection,WindDirectionDegrees,WindSpeedMPH,WindSpeedGustMPH,Humidity,HourlyPrecipIn,Conditions,Clouds,dailyrainin,SoftwareType,DateUTC
2013-02-08 00:02:00,33.0,-99.9,-100.00,NNW,330,12.0,19.0,-999,0.00,,,0.65,,2013-02-08 06:02:00,
2013-02-08 00:11:00,33.0,-99.9,-100.00,NNW,332,11.0,15.0,-999,0.00,,,0.64,,2013-02-08 06:11:00,
2013-02-08 00:22:00,33.0,-99.9,-100.00,NNW,332,11.0,15.0,-999,0.00,,,0.64,,2013-02-08 06:22:00,
2013-02-08 00:32:00,33.0,-99.9,-100.00,NNW,332,11.0,15.0,-999,0.00,,,0.64,,2013-02-08 06:32:00,
2013-02-08 00:42:00,33.0,-99.9,-100.00,NNW,331,11.0,14.0,-999,0.00,,,0.63,,2013-02-08 06:42:00,
2013-02-08 00:52:00,33.0,-99.9,-100.00,NNW,331,11.0,14.0,-999,0.00,,,0.63,,2013-02-08 06:52:00,
2013-02-08 01:02:00,33.0,-99.9,-100.00,NNW,331,11.0,14.0,-999,0.00,,,0.63,,2013-02-08 07:02:00,
2013-02-08 01:12:00,33.0,-99.9,-100.00,NW,324,11.0,13.0,-999,0.00,,,0.61,,2013-02-08 07:12:00,
2013-02-08 01:22:00,33.0,-99.9,-100.00,NW,324,11.0,13.0,-999,0.00,,,0.61,,2013-02-08 07:22:00,
2013-02-08 01:32:00,33.0,-99.9,-100.00,NNW,337,8.0,12.0,-999,0.00,,,-99.99,,2013-02-08 07:32:00,
2013-02-08 01:42:00,33.0,-99.9,-100.00,NNW,337,8.0,12.0,-999,0.00,,,-99.99,,2013-02-08 07:42:00,
2013-02-08 01:52:00,33.0,-99.9,-100.00,NNW,337,8.0,12.0,-999,0.00,,,-99.99,,2013-02-08 07:52:00,
2013-02-08 02:02:00,33.0,-99.9,-100.00,NNW,337,8.0,12.0,-999,0.00,,,-99.99,,2013-02-08 08:02:00,
2013-02-08 02:12:00,32.0,-99.9,-100.00,NNW,338,10.0,13.0,-999,0.00,,,0.53,,2013-02-08 08:12:00,
2013-02-08 02:22:00,32.0,-99.9,-100.00,NNW,338,10.0,13.0,-999,0.00,,,0.53,,2013-02-08 08:22:00,
2013-02-08 02:32:00,32.0,-99.9,-100.00,NNW,338,10.0,13.0,-999,0.00,,,0.53,,2013-02-08 08:32:00,
2013-02-08 02:42:00,32.0,-99.9,-100.00,NNW,336,9.0,14.0,-999,0.00,,,0.53,,2013-02-08 08:42:00,
2013-02-08 02:52:00,32.0,-99.9,-100.00,NNW,336,9.0,14.0,-999,0.00,,,0.53,,2013-02-08 08:52:00,
2013-02-08 03:03:00,32.0,-99.9,-100.00,NNW,336,9.0,14.0,-999,0.00,,,0.53,,2013-02-08 09:03:00,
2013-02-08 03:11:00,32.0,-99.9,-100.00,NNW,347,8.0,11.0,-999,0.00,,,0.50,,2013-02-08 09:11:00,
2013-02-08 03:22:00,32.0,-99.9,-100.00,NNW,347,8.0,11.0,-999,0.00,,,0.50,,2013-02-08 09:22:00,
2013-02-08 03:32:00,32.0,-99.9,-100.00,North,349,7.0,11.0,-999,0.00,,,0.49,,2013-02-08 09:32:00,
2013-02-08 03:42:00,32.0,-99.9,-100.00,NNW,337,7.0,13.0,-999,0.00,,,-99.99,,2013-02-08 09:42:00,
2013-02-08 03:52:00,32.0,-99.9,-100.00,NNW,337,7.0,13.0,-999,0.00,,,-99.99,,2013-02-08 09:52:00,
2013-02-08 04:02:00,32.0,-99.9,-100.00,NNW,337,7.0,13.0,-999,0.00,,,-99.99,,2013-02-08 10:02:00,
2013-02-08 04:12:00,32.0,-99.9,-100.00,NNW,332,9.0,13.0,-999,0.00,,,0.43,,2013-02-08 10:12:00,
2013-02-08 04:22:00,32.0,-99.9,-100.00,NNW,332,9.0,13.0,-999,0.00,,,0.43,,2013-02-08 10:22:00,
2013-02-08 04:32:00,32.0,-99.9,-100.00,NNW,332,9.0,13.0,-999,0.00,,,0.43,,2013-02-08 10:32:00,
2013-02-08 04:42:00,32.0,-99.9,-100.00,NNW,336,10.0,13.0,-999,0.00,,,0.39,,2013-02-08 10:42:00,
2013-02-08 04:52:00,32.0,-99.9,-100.00,NNW,336,10.0,13.0,-999,0.00,,,0.39,,2013-02-08 10:52:00,
2013-02-08 05:02:00,32.0,-99.9,-100.00,NNW,336,10.0,13.0,-999,0.00,,,0.39,,2013-02-08 11:02:00,
2013-02-08 05:11:00,32.0,-99.9,-100.00,NNW,334,9.0,11.0,-999,0.00,,,0.38,,2013-02-08 11:11:00,
2013-02-08 05:22:00,32.0,-99.9,-100.00,NNW,334,9.0,11.0,-999,0.00,,,0.38,,2013-02-08 11:22:00,
2013-02-08 05:32:00,32.0,-99.9,-100.00,NNW,334,9.0,11.0,-999,0.00,,,0.38,,2013-02-08 11:32:00,
2013-02-08 05:42:00,32.0,-99.9,-100.00,NNW,334,8.0,11.0,-999,0.00,,,0.38,,2013-02-08 11:42:00,
2013-02-08 05:53:00,32.0,-99.9,-100.00,NNW,334,8.0,11.0,-999,0.00,,,0.38,,2013-02-08 11:53:00,
2013-02-08 06:02:00,32.0,-99.9,-100.00,NNW,334,8.0,11.0,-999,0.00,,,0.38,,2013-02-08 12:02:00,
2013-02-08 06:11:00,31.0,-99.9,-100.00,NNW,342,7.0,12.0,-999,0.00,,,0.38,,2013-02-08 12:11:00,
2013-02-08 06:22:00,31.0,-99.9,-100.00,NNW,342,7.0,12.0,-999,0.00,,,0.38,,2013-02-08 12:22:00,
2013-02-08 06:33:00,31.0,-99.9,-100.00,NNW,342,7.0,12.0,-999,0.00,,,0.38,,2013-02-08 12:33:00,
2013-02-08 06:42:00,31.0,-99.9,-100.00,North,6,4.0,7.0,-999,0.00,,,0.38,,2013-02-08 12:42:00,
2013-02-08 06:53:00,31.0,-99.9,-100.00,North,6,4.0,7.0,-999,0.00,,,0.38,,2013-02-08 12:53:00,
2013-02-08 07:02:00,31.0,-99.9,-100.00,North,6,4.0,7.0,-999,0.00,,,0.38,,2013-02-08 13:02:00,
2013-02-08 07:12:00,31.0,-99.9,-100.00,North,360,5.0,11.0,-999,0.00,,,0.38,,2013-02-08 13:12:00,
2013-02-08 07:22:00,31.0,-99.9,-100.00,North,360,5.0,11.0,-999,0.00,,,0.38,,2013-02-08 13:22:00,
2013-02-08 07:33:00,31.0,-99.9,-100.00,North,360,5.0,11.0,-999,0.00,,,0.38,,2013-02-08 13:33:00,
2013-02-08 07:43:00,31.0,-99.9,-100.00,NNW,343,6.0,9.0,-999,0.00,,,0.38,,2013-02-08 13:43:00,
2013-02-08 07:52:00,31.0,-99.9,-100.00,NNW,343,6.0,9.0,-999,0.00,,,0.38,,2013-02-08 13:52:00,
2013-02-08 08:02:00,31.0,-99.9,-100.00,NNW,343,6.0,9.0,-999,0.00,,,0.38,,2013-02-08 14:02:00,
2013-02-08 08:12:00,31.0,-99.9,-100.00,NNW,340,5.0,8.0,-999,0.00,,,0.34,,2013-02-08 14:12:00,
2013-02-08 08:22:00,31.0,-99.9,-100.00,NNW,340,5.0,8.0,-999,0.00,,,0.34,,2013-02-08 14:22:00,
2013-02-08 08:33:00,31.0,-99.9,-100.00,NNW,340,5.0,8.0,-999,0.00,,,0.34,,2013-02-08 14:33:00,
2013-02-08 08:42:00,31.0,-99.9,-100.00,NNW,348,3.0,5.0,-999,0.00,,,0.30,,2013-02-08 14:42:00,
2013-02-08 08:53:00,31.0,-99.9,-100.00,NNW,348,3.0,5.0,-999,0.00,,,0.30,,2013-02-08 14:53:00,
2013-02-08 09:02:00,31.0,-99.9,-100.00,NNW,348,3.0,5.0,-999,0.00,,,0.30,,2013-02-08 15:02:00,
2013-02-08 09:12:00,32.0,-99.9,-100.00,NNW,348,4.0,8.0,-999,0.00,,,0.26,,2013-02-08 15:12:00,
2013-02-08 09:22:00,32.0,-99.9,-100.00,NNW,348,4.0,8.0,-999,0.00,,,0.26,,2013-02-08 15:22:00,
2013-02-08 09:32:00,32.0,-99.9,-100.00,NNW,348,4.0,8.0,-999,0.00,,,0.26,,2013-02-08 15:32:00,
2013-02-08 09:42:00,31.0,-99.9,-100.00,North,3,4.0,7.0,-999,0.00,,,0.23,,2013-02-08 15:42:00,
2013-02-08 09:52:00,31.0,-99.9,-100.00,North,3,4.0,7.0,-999,0.00,,,0.23,,2013-02-08 15:52:00,
2013-02-08 10:02:00,31.0,-99.9,-100.00,North,3,4.0,7.0,-999,0.00,,,0.23,,2013-02-08 16:02:00,
2013-02-08 10:12:00,31.0,-99.9,-100.00,North,7,2.0,3.0,-999,0.00,,,-99.99,,2013-02-08 16:12:00,
2013-02-08 10:22:00,31.0,-99.9,-100.00,North,7,2.0,3.0,-999,0.00,,,-99.99,,2013-02-08 16:22:00,
2013-02-08 10:33:00,30.0,-99.9,-100.00,North,1,6.0,15.0,-999,0.00,,,0.19,,2013-02-08 16:33:00,
2013-02-08 10:42:00,30.0,-99.9,-100.00,North,1,6.0,15.0,-999,0.00,,,0.19,,2013-02-08 16:42:00,
2013-02-08 10:52:00,30.0,-99.9,-100.00,North,1,6.0,15.0,-999,0.00,,,0.19,,2013-02-08 16:52:00,
2013-02-08 11:04:00,30.0,-99.9,-100.00,North,1,6.0,15.0,-999,0.00,,,0.19,,2013-02-08 17:04:00,
2013-02-08 11:13:00,30.0,-99.9,-100.00,North,355,6.0,11.0,-999,0.00,,,0.18,,2013-02-08 17:13:00,
2013-02-08 11:23:00,30.0,-99.9,-100.00,North,355,6.0,11.0,-999,0.00,,,0.18,,2013-02-08 17:23:00,
2013-02-08 11:33:00,30.0,-99.9,-100.00,North,355,6.0,11.0,-999,0.00,,,0.18,,2013-02-08 17:33:00,
2013-02-08 11:42:00,30.0,-99.9,-100.00,NNE,28,4.0,7.0,-999,0.00,,,0.15,,2013-02-08 17:42:00,
2013-02-08 11:53:00,30.0,-99.9,-100.00,NNE,28,4.0,7.0,-999,0.00,,,0.15,,2013-02-08 17:53:00,
2013-02-08 12:03:00,30.0,-99.9,-100.00,NNE,28,4.0,7.0,-999,0.00,,,0.15,,2013-02-08 18:03:00,
2013-02-08 12:12:00,30.0,-99.9,-100.00,NE,43,2.0,4.0,-999,0.00,,,0.13,,2013-02-08 18:12:00,
2013-02-08 12:25:00,30.0,-99.9,-100.00,NE,43,2.0,4.0,-999,0.00,,,0.13,,2013-02-08 18:25:00,
2013-02-08 12:36:00,30.0,-99.9,-100.00,NE,43,2.0,4.0,-999,0.00,,,0.13,,2013-02-08 18:36:00,
2013-02-08 12:44:00,30.0,-99.9,-100.00,NNE,29,2.0,5.0,-999,0.00,,,0.12,,2013-02-08 18:44:00,
2013-02-08 12:53:00,30.0,-99.9,-100.00,NNE,29,2.0,5.0,-999,0.00,,,0.12,,2013-02-08 18:53:00,
2013-02-08 13:02:00,30.0,-99.9,-100.00,NNE,29,2.0,5.0,-999,0.00,,,0.12,,2013-02-08 19:02:00,
2013-02-08 13:12:00,31.0,-99.9,-100.00,NE,38,2.0,3.0,-999,0.00,,,0.10,,2013-02-08 19:12:00,
2013-02-08 13:22:00,31.0,-99.9,-100.00,NE,38,2.0,3.0,-999,0.00,,,0.10,,2013-02-08 19:22:00,
2013-02-08 13:33:00,31.0,-99.9,-100.00,NE,38,2.0,3.0,-999,0.00,,,0.10,,2013-02-08 19:33:00,
2013-02-08 13:42:00,31.0,-99.9,-100.00,NNE,19,2.0,4.0,-999,0.00,,,0.08,,2013-02-08 19:42:00,
2013-02-08 13:53:00,31.0,-99.9,-100.00,NNE,19,2.0,4.0,-999,0.00,,,0.08,,2013-02-08 19:53:00,
2013-02-08 14:02:00,31.0,-99.9,-100.00,NNE,19,2.0,4.0,-999,0.00,,,0.08,,2013-02-08 20:02:00,
2013-02-08 14:12:00,30.0,-99.9,-100.00,NNE,28,2.0,4.0,-999,0.00,,,0.05,,2013-02-08 20:12:00,
2013-02-08 14:22:00,30.0,-99.9,-100.00,NNE,28,2.0,4.0,-999,0.00,,,0.05,,2013-02-08 20:22:00,
2013-02-08 14:32:00,30.0,-99.9,-100.00,NNE,28,2.0,4.0,-999,0.00,,,0.05,,2013-02-08 20:32:00,
2013-02-08 14:42:00,31.0,-99.9,-100.00,North,9,4.0,6.0,-999,0.00,,,0.03,,2013-02-08 20:42:00,
2013-02-08 14:53:00,31.0,-99.9,-100.00,North,9,4.0,6.0,-999,0.00,,,0.03,,2013-02-08 20:53:00,
2013-02-08 15:02:00,31.0,-99.9,-100.00,North,9,4.0,6.0,-999,0.00,,,0.03,,2013-02-08 21:02:00,
2013-02-08 15:12:00,31.0,-99.9,-100.00,NW,325,3.0,5.0,-999,0.00,,,0.02,,2013-02-08 21:12:00,
2013-02-08 15:22:00,31.0,-99.9,-100.00,NW,325,3.0,5.0,-999,0.00,,,0.02,,2013-02-08 21:22:00,
2013-02-08 15:33:00,31.0,-99.9,-100.00,NW,325,3.0,5.0,-999,0.00,,,0.02,,2013-02-08 21:33:00,
2013-02-08 15:42:00,30.0,-99.9,-100.00,ENE,71,2.0,5.0,-999,0.00,,,0.01,,2013-02-08 21:42:00,
2013-02-08 15:52:00,30.0,-99.9,-100.00,ENE,71,2.0,5.0,-999,0.00,,,0.01,,2013-02-08 21:52:00,
2013-02-08 16:02:00,30.0,-99.9,-100.00,ENE,71,2.0,5.0,-999,0.00,,,0.01,,2013-02-08 22:02:00,
2013-02-08 16:12:00,31.0,-99.9,-100.00,South,173,1.0,3.0,-999,0.00,,,0.01,,2013-02-08 22:12:00,
2013-02-08 16:22:00,31.0,-99.9,-100.00,South,173,1.0,3.0,-999,0.00,,,0.01,,2013-02-08 22:22:00,
2013-02-08 16:32:00,31.0,-99.9,-100.00,South,173,1.0,3.0,-999,0.00,,,0.01,,2013-02-08 22:32:00,
2013-02-08 16:42:00,31.0,-99.9,-100.00,North,356,0.0,2.0,-999,0.00,,,0.00,,2013-02-08 22:42:00,
2013-02-08 16:52:00,31.0,-99.9,-100.00,North,356,0.0,2.0,-999,0.00,,,0.00,,2013-02-08 22:52:00,
2013-02-08 17:02:00,31.0,-99.9,-100.00,North,356,0.0,2.0,-999,0.00,,,0.00,,2013-02-08 23:02:00,
2013-02-08 17:12:00,31.0,-99.9,-100.00,SE,140,1.0,2.0,-999,0.00,,,0.00,,2013-02-08 23:12:00,
2013-02-08 17:22:00,31.0,-99.9,-100.00,SE,140,1.0,2.0,-999,0.00,,,0.00,,2013-02-08 23:22:00,
2013-02-08 17:32:00,31.0,-99.9,-100.00,SE,140,1.0,2.0,-999,0.00,,,0.00,,2013-02-08 23:32:00,
2013-02-08 17:42:00,30.0,-99.9,-100.00,ESE,106,4.0,6.0,-999,0.00,,,0.00,,2013-02-08 23:42:00,
2013-02-08 17:52:00,30.0,-99.9,-100.00,ESE,106,4.0,6.0,-999,0.00,,,0.00,,2013-02-08 23:52:00,
2013-02-08 18:02:00,30.0,-99.9,-100.00,ESE,106,4.0,6.0,-999,0.00,,,0.00,,2013-02-09 00:02:00,
2013-02-08 18:12:00,30.0,-99.9,-100.00,SE,135,2.0,4.0,-999,0.00,,,0.00,,2013-02-09 00:12:00,
2013-02-08 18:22:00,30.0,-99.9,-100.00,SE,135,2.0,4.0,-999,0.00,,,0.00,,2013-02-09 00:22:00,
2013-02-08 18:32:00,30.0,-99.9,-100.00,ESE,109,5.0,7.0,-999,0.00,,,0.00,,2013-02-09 00:32:00,
2013-02-08 18:42:00,30.0,-99.9,-100.00,ESE,109,5.0,7.0,-999,0.00,,,0.00,,2013-02-09 00:42:00,
2013-02-08 18:52:00,30.0,-99.9,-100.00,ESE,109,5.0,7.0,-999,0.00,,,0.00,,2013-02-09 00:52:00,
2013-02-08 19:02:00,30.0,-99.9,-100.00,ESE,109,5.0,7.0,-999,0.00,,,0.00,,2013-02-09 01:02:00,
2013-02-08 19:12:00,30.0,-99.9,-100.00,ESE,113,5.0,6.0,-999,0.00,,,0.00,,2013-02-09 01:12:00,
2013-02-08 19:22:00,30.0,-99.9,-100.00,ESE,113,5.0,6.0,-999,0.00,,,0.00,,2013-02-09 01:22:00,
2013-02-08 19:32:00,30.0,-99.9,-100.00,SSE,163,4.0,7.0,-999,0.00,,,0.00,,2013-02-09 01:32:00,
2013-02-08 19:42:00,30.0,-99.9,-100.00,SSE,163,4.0,7.0,-999,0.00,,,0.00,,2013-02-09 01:42:00,
2013-02-08 19:52:00,30.0,-99.9,-100.00,SSE,163,4.0,7.0,-999,0.00,,,0.00,,2013-02-09 01:52:00,
2013-02-08 20:02:00,30.0,-99.9,-100.00,SSE,163,4.0,7.0,-999,0.00,,,0.00,,2013-02-09 02:02:00,
2013-02-08 20:11:00,30.0,-99.9,-100.00,ESE,120,4.0,6.0,-999,0.00,,,-99.99,,2013-02-09 02:11:00,
2013-02-08 20:22:00,30.0,-99.9,-100.00,ESE,120,4.0,6.0,-999,0.00,,,-99.99,,2013-02-09 02:22:00,
2013-02-08 20:32:00,30.0,-99.9,-100.00,ESE,120,4.0,6.0,-999,0.00,,,-99.99,,2013-02-09 02:32:00,
2013-02-08 20:42:00,29.0,-99.9,-100.00,SE,129,6.0,9.0,-999,0.00,,,0.00,,2013-02-09 02:42:00,
2013-02-08 20:53:00,29.0,-99.9,-100.00,SE,129,6.0,9.0,-999,0.00,,,0.00,,2013-02-09 02:53:00,
2013-02-08 21:02:00,29.0,-99.9,-100.00,SE,129,6.0,9.0,-999,0.00,,,0.00,,2013-02-09 03:02:00,
2013-02-08 21:11:00,29.0,-99.9,-100.00,SSE,149,8.0,10.0,-999,0.00,,,0.00,,2013-02-09 03:11:00,
2013-02-08 21:22:00,29.0,-99.9,-100.00,SSE,149,8.0,10.0,-999,0.00,,,0.00,,2013-02-09 03:22:00,
2013-02-08 21:32:00,29.0,-99.9,-100.00,SSE,149,8.0,10.0,-999,0.00,,,0.00,,2013-02-09 03:32:00,
2013-02-08 21:42:00,29.0,-99.9,-100.00,SE,141,5.0,8.0,-999,0.00,,,0.00,,2013-02-09 03:42:00,
2013-02-08 21:53:00,29.0,-99.9,-100.00,SE,141,5.0,8.0,-999,0.00,,,0.00,,2013-02-09 03:53:00,
2013-02-08 22:03:00,29.0,-99.9,-100.00,SE,141,5.0,8.0,-999,0.00,,,0.00,,2013-02-09 04:03:00,
2013-02-08 22:12:00,29.0,-99.9,-100.00,SE,142,8.0,10.0,-999,0.00,,,0.00,,2013-02-09 04:12:00,
2013-02-08 22:24:00,29.0,-99.9,-100.00,SE,142,8.0,10.0,-999,0.00,,,0.00,,2013-02-09 04:24:00,
2013-02-08 22:32:00,29.0,-99.9,-100.00,SE,142,8.0,10.0,-999,0.00,,,0.00,,2013-02-09 04:32:00,
2013-02-08 22:43:00,29.0,-99.9,-100.00,SE,127,6.0,8.0,-999,0.00,,,0.00,,2013-02-09 04:43:00,
2013-02-08 22:53:00,29.0,-99.9,-100.00,SE,127,6.0,8.0,-999,0.00,,,0.00,,2013-02-09 04:53:00,
2013-02-08 23:02:00,29.0,-99.9,-100.00,SE,127,6.0,8.0,-999,0.00,,,0.00,,2013-02-09 05:02:00,
2013-02-08 23:12:00,29.0,-99.9,-100.00,SE,135,6.0,8.0,-999,0.00,,,0.00,,2013-02-09 05:12:00,
2013-02-08 23:22:00,29.0,-99.9,-100.00,SE,135,6.0,8.0,-999,0.00,,,0.00,,2013-02-09 05:22:00,
2013-02-08 23:32:00,29.0,-99.9,-100.00,SE,135,6.0,8.0,-999,0.00,,,0.00,,2013-02-09 05:32:00,
2013-02-08 23:42:00,28.0,-99.9,-100.00,SE,142,6.0,9.0,-999,0.00,,,0.00,,2013-02-09 05:42:00,
2013-02-08 23:52:00,28.0,-99.9,-100.00,SE,142,6.0,9.0,-999,0.00,,,0.00,,2013-02-09 05:52:00,